createdAt,value
2022-11-16T00:02:22.637Z,99179.72
2022-11-16T00:06:39.264Z,99181.56
2022-11-16T00:10:55.531Z,99166.00
2022-11-16T00:15:11.794Z,99168.94
2022-11-16T00:19:28.795Z,99157.69
2022-11-16T00:23:45.030Z,99160.41
2022-11-16T00:28:01.297Z,99146.78
2022-11-16T00:32:17.439Z,99138.84
2022-11-16T00:36:33.573Z,99129.66
2022-11-16T00:40:49.821Z,99122.81
2022-11-16T00:45:06.356Z,99118.91
2022-11-16T00:49:22.584Z,99117.25
2022-11-16T00:53:39.086Z,99113.47
2022-11-16T00:57:55.309Z,99111.03
2022-11-16T01:02:12.953Z,99105.22
2022-11-16T01:06:29.124Z,99100.13
2022-11-16T01:10:45.402Z,99094.81
2022-11-16T01:15:01.562Z,99077.50
2022-11-16T01:19:17.726Z,99083.47
2022-11-16T01:23:33.913Z,99072.44
2022-11-16T01:27:50.125Z,99071.03
2022-11-16T01:32:06.838Z,99067.16
2022-11-16T01:36:23.339Z,99065.63
2022-11-16T01:40:39.569Z,99050.94
2022-11-16T01:45:00.347Z,99051.97
2022-11-16T01:49:20.737Z,99044.47
2022-11-16T01:53:37.990Z,99044.22
2022-11-16T01:57:54.873Z,99038.34
2022-11-16T02:02:11.157Z,99028.97
2022-11-16T02:06:32.517Z,99016.97
2022-11-16T02:10:57.577Z,99021.75
2022-11-16T02:15:35.932Z,99013.56
2022-11-16T02:20:13.858Z,99005.44
2022-11-16T02:24:49.350Z,99000.69
2022-11-16T02:29:12.073Z,99004.28
2022-11-16T02:33:35.631Z,99001.50
2022-11-16T02:37:56.642Z,98997.88
2022-11-16T02:42:17.550Z,98989.34
2022-11-16T02:46:37.658Z,98984.22
2022-11-16T02:50:54.197Z,98976.25
2022-11-16T02:55:10.357Z,98970.91
2022-11-16T02:59:42.459Z,98964.13
2022-11-16T03:04:16.536Z,98960.66
2022-11-16T03:08:38.720Z,98951.94
2022-11-16T03:12:55.007Z,98956.13
2022-11-16T03:17:21.703Z,98934.69
2022-11-16T03:21:45.698Z,98938.84
2022-11-16T03:26:05.449Z,98933.50
2022-11-16T03:30:32.196Z,98931.50
2022-11-16T03:35:02.637Z,98933.37
2022-11-16T03:39:28.892Z,98929.97
2022-11-16T03:43:45.752Z,98926.53
2022-11-16T03:48:01.943Z,98918.91
2022-11-16T03:52:19.248Z,98911.94
2022-11-16T03:56:35.370Z,98902.56
2022-11-16T04:00:51.712Z,98900.12
2022-11-16T04:05:26.628Z,98896.00
2022-11-16T04:10:01.483Z,98894.75
2022-11-16T04:14:41.683Z,98889.13
2022-11-16T04:19:16.154Z,98880.44
2022-11-16T04:23:51.203Z,98885.00
2022-11-16T04:28:13.783Z,98874.59
2022-11-16T04:32:48.888Z,98871.00
2022-11-16T04:37:23.536Z,98863.13
2022-11-16T04:41:58.268Z,98862.72
2022-11-16T04:46:37.615Z,98865.72
2022-11-16T04:50:53.838Z,98865.94
2022-11-16T04:55:10.632Z,98869.66
2022-11-16T04:59:27.112Z,98863.06
2022-11-16T05:03:43.345Z,98861.28
2022-11-16T05:07:59.581Z,98858.91
2022-11-16T05:12:19.032Z,98858.97
2022-11-16T05:16:35.265Z,98856.41
2022-11-16T05:21:00.852Z,98842.44
2022-11-16T05:25:17.011Z,98836.72
2022-11-16T05:29:33.934Z,98829.69
2022-11-16T05:33:50.051Z,98840.03
2022-11-16T05:38:06.389Z,98824.94
2022-11-16T05:42:22.829Z,98819.28
2022-11-16T05:46:39.182Z,98830.50
2022-11-16T05:51:00.102Z,98828.22
2022-11-16T05:55:16.363Z,98819.09
2022-11-16T05:59:32.595Z,98813.03
2022-11-16T06:03:48.800Z,98813.50
2022-11-16T06:08:05.710Z,98802.94
2022-11-16T06:12:21.805Z,98800.56
2022-11-16T06:16:37.982Z,98801.91
2022-11-16T06:20:54.362Z,98800.31
2022-11-16T06:25:11.219Z,98804.97
2022-11-16T06:29:27.390Z,98799.56
2022-11-16T06:33:43.536Z,98800.34
2022-11-16T06:37:59.728Z,98805.94
2022-11-16T06:42:15.857Z,98806.28
2022-11-16T06:46:32.851Z,98807.25
2022-11-16T06:50:50.065Z,98805.59
2022-11-16T06:55:06.685Z,98802.81
2022-11-16T06:59:22.881Z,98800.94
2022-11-16T07:03:39.022Z,98788.25
2022-11-16T07:07:58.584Z,98791.53
2022-11-16T07:12:14.825Z,98782.88
2022-11-16T07:16:31.116Z,98784.69
2022-11-16T07:20:47.289Z,98778.91
2022-11-16T07:25:03.590Z,98767.03
2022-11-16T07:29:21.719Z,98763.28
2022-11-16T07:33:38.174Z,98757.78
2022-11-16T07:37:54.321Z,98759.37
2022-11-16T07:42:12.168Z,98758.09
2022-11-16T07:51:07.154Z,98753.38
2022-11-16T07:55:25.849Z,98754.09
2022-11-16T07:59:42.001Z,98762.12
2022-11-16T08:03:58.525Z,98752.69
2022-11-16T08:08:14.636Z,98750.03
2022-11-16T08:12:31.368Z,98749.91
2022-11-16T08:16:47.567Z,98744.00
2022-11-16T08:21:04.866Z,98736.34
2022-11-16T08:25:20.945Z,98726.19
2022-11-16T08:29:37.134Z,98726.75
2022-11-16T08:33:53.521Z,98727.81
2022-11-16T08:38:09.631Z,98713.97
2022-11-16T08:42:25.918Z,98720.75
2022-11-16T08:46:42.030Z,98719.94
2022-11-16T08:51:20.594Z,98725.84
2022-11-16T08:55:37.344Z,98737.38
2022-11-16T08:59:53.470Z,98733.84
2022-11-16T09:04:09.742Z,98742.31
2022-11-16T09:08:25.933Z,98723.47
2022-11-16T09:12:42.200Z,98715.06
2022-11-16T09:16:58.422Z,98712.84
2022-11-16T09:21:23.374Z,98696.16
2022-11-16T09:25:39.565Z,98690.91
2022-11-16T09:29:55.804Z,98679.66
2022-11-16T09:34:12.286Z,98691.72
2022-11-16T09:38:40.581Z,98698.53
2022-11-16T09:43:29.320Z,98696.72
2022-11-16T09:48:02.492Z,98688.03
2022-11-16T09:52:41.245Z,98684.28
2022-11-16T09:57:06.770Z,98674.69
2022-11-16T10:01:35.265Z,98674.75
2022-11-16T10:06:05.622Z,98669.22
2022-11-16T10:10:35.072Z,98662.47
2022-11-16T10:15:26.712Z,98654.59
2022-11-16T10:20:07.625Z,98657.03
2022-11-16T10:24:42.689Z,98654.81
2022-11-16T10:29:33.929Z,98646.72
2022-11-16T10:33:52.158Z,98640.25
2022-11-16T10:38:17.399Z,98630.53
2022-11-16T10:42:37.299Z,98626.72
2022-11-16T10:47:23.205Z,98616.59
2022-11-16T10:51:39.465Z,98619.03
2022-11-16T10:56:17.854Z,98595.38
2022-11-16T11:00:47.079Z,98588.69
2022-11-16T11:05:20.444Z,98589.88
2022-11-16T11:09:37.757Z,98593.97
2022-11-16T11:14:19.945Z,98587.16
2022-11-16T11:18:36.111Z,98579.56
2022-11-16T11:22:57.236Z,98561.34
2022-11-16T11:27:13.660Z,98569.28
2022-11-16T11:31:50.787Z,98562.78
2022-11-16T11:36:19.387Z,98558.66
2022-11-16T11:40:36.371Z,98547.69
2022-11-16T11:44:57.357Z,98542.94
2022-11-16T11:49:33.920Z,98542.84
2022-11-16T11:53:58.877Z,98530.03
2022-11-16T11:58:19.639Z,98530.53
2022-11-16T12:02:47.827Z,98532.34
2022-11-16T12:07:32.025Z,98539.59
2022-11-16T12:12:16.324Z,98534.88
2022-11-16T12:16:35.576Z,98531.75
2022-11-16T12:20:57.691Z,98531.31
2022-11-16T12:25:35.387Z,98526.19
2022-11-16T12:30:03.548Z,98530.31
2022-11-16T12:34:37.832Z,98526.47
2022-11-16T12:39:31.713Z,98519.41
2022-11-16T12:43:54.717Z,98518.59
2022-11-16T12:48:38.517Z,98509.19
2022-11-16T12:53:00.672Z,98500.56
2022-11-16T12:57:57.891Z,98494.34
2022-11-16T13:02:51.537Z,98501.00
2022-11-16T13:07:26.296Z,98494.50
2022-11-16T13:11:47.356Z,98496.12
2022-11-16T13:16:05.558Z,98499.28
2022-11-16T13:20:32.092Z,98489.09
2022-11-16T13:24:58.752Z,98483.22
2022-11-16T13:29:53.330Z,98486.34
2022-11-16T13:34:23.068Z,98492.09
2022-11-16T13:38:53.360Z,98496.03
2022-11-16T13:43:13.026Z,98499.28
2022-11-16T13:47:30.718Z,98503.75
2022-11-16T13:52:11.324Z,98505.19
2022-11-16T13:56:49.177Z,98495.28
2022-11-16T14:01:09.141Z,98494.69
2022-11-16T14:05:34.236Z,98493.16
2022-11-16T14:09:50.611Z,98489.56
2022-11-16T14:14:10.425Z,98478.38
2022-11-16T14:18:37.351Z,98475.06
2022-11-16T14:23:17.001Z,98479.03
2022-11-16T14:27:43.131Z,98483.03
2022-11-16T14:32:01.698Z,98467.63
2022-11-16T14:36:18.130Z,98473.31
2022-11-16T14:40:49.322Z,98469.56
2022-11-16T14:45:14.378Z,98472.97
2022-11-16T14:49:33.675Z,98472.47
2022-11-16T14:53:53.324Z,98466.38
2022-11-16T14:58:16.629Z,98466.88
2022-11-16T15:02:33.365Z,98464.62
2022-11-16T15:07:02.606Z,98453.97
2022-11-16T15:11:48.514Z,98445.63
2022-11-16T15:16:16.387Z,98451.50
2022-11-16T15:20:38.021Z,98446.78
2022-11-16T15:25:03.008Z,98443.34
2022-11-16T15:29:21.255Z,98448.66
2022-11-16T15:33:42.964Z,98438.84
2022-11-16T15:38:06.577Z,98439.22
2022-11-16T15:42:23.129Z,98438.97
2022-11-16T15:46:40.137Z,98439.22
2022-11-16T15:51:05.258Z,98437.28
2022-11-16T15:55:41.916Z,98437.63
2022-11-16T15:59:58.412Z,98429.00
2022-11-16T16:04:18.955Z,98421.91
2022-11-16T16:08:38.876Z,98423.72
2022-11-16T16:12:57.860Z,98433.91
2022-11-16T16:17:24.817Z,98433.50
2022-11-16T16:21:47.106Z,98437.19
2022-11-16T16:26:06.167Z,98438.53
2022-11-16T16:30:22.460Z,98429.31
2022-11-16T16:34:42.177Z,98429.38
2022-11-16T16:38:58.725Z,98424.59
2022-11-16T16:43:15.044Z,98418.91
2022-11-16T16:47:31.658Z,98410.91
2022-11-16T16:51:47.974Z,98408.19
2022-11-16T16:56:04.364Z,98414.34
2022-11-16T17:00:20.860Z,98402.56
2022-11-16T17:04:37.194Z,98404.06
2022-11-16T17:08:53.639Z,98405.56
2022-11-16T17:13:11.047Z,98430.13
2022-11-16T17:17:27.437Z,98417.22
2022-11-16T17:21:43.965Z,98421.09
2022-11-16T17:26:02.932Z,98417.75
2022-11-16T17:30:19.291Z,98417.34
2022-11-16T17:34:35.688Z,98417.22
2022-11-16T17:38:52.135Z,98404.19
2022-11-16T17:43:08.342Z,98408.53
2022-11-16T17:47:24.671Z,98402.88
2022-11-16T17:51:41.071Z,98406.34
2022-11-16T17:55:57.348Z,98390.22
2022-11-16T18:00:14.269Z,98390.00
2022-11-16T18:04:30.491Z,98392.53
2022-11-16T18:08:47.210Z,98385.69
2022-11-16T18:13:04.715Z,98384.09
2022-11-16T18:17:20.924Z,98375.00
2022-11-16T18:21:40.592Z,98376.53
2022-11-16T18:25:56.943Z,98390.97
2022-11-16T18:30:13.877Z,98385.91
2022-11-16T18:34:30.021Z,98379.88
2022-11-16T18:38:46.542Z,98379.03
2022-11-16T18:43:02.736Z,98370.03
2022-11-16T18:47:19.312Z,98374.06
2022-11-16T18:51:35.500Z,98374.59
2022-11-16T18:55:57.651Z,98376.44
2022-11-16T19:00:15.380Z,98380.25
2022-11-16T19:04:31.575Z,98377.53
2022-11-16T19:08:54.999Z,98378.72
2022-11-16T19:13:13.305Z,98387.03
2022-11-16T19:17:29.479Z,98384.00
2022-11-16T19:21:45.652Z,98383.25
2022-11-16T19:26:05.003Z,98389.00
2022-11-16T19:30:21.366Z,98390.19
2022-11-16T19:34:37.842Z,98395.19
2022-11-16T19:38:55.591Z,98382.97
2022-11-16T19:43:11.883Z,98373.88
2022-11-16T19:47:29.637Z,98369.22
2022-11-16T19:51:45.784Z,98365.38
2022-11-16T19:56:03.580Z,98354.53
2022-11-16T20:00:24.433Z,98354.34
2022-11-16T20:05:00.829Z,98354.47
2022-11-16T20:09:17.001Z,98357.25
2022-11-16T20:13:33.572Z,98363.88
2022-11-16T20:17:50.095Z,98369.22
2022-11-16T20:22:06.246Z,98369.72
2022-11-16T20:26:25.626Z,98363.06
2022-11-16T20:30:48.567Z,98367.31
2022-11-16T20:35:04.858Z,98362.69
2022-11-16T20:39:21.986Z,98366.81
2022-11-16T20:43:42.475Z,98363.06
2022-11-16T20:48:00.247Z,98356.63
2022-11-16T20:52:16.417Z,98348.13
2022-11-16T20:56:33.094Z,98344.34
2022-11-16T21:00:50.009Z,98336.84
2022-11-16T21:05:06.619Z,98337.34
2022-11-16T21:09:23.461Z,98329.63
2022-11-16T21:13:58.665Z,98336.06
2022-11-16T21:18:14.892Z,98327.97
2022-11-16T21:22:32.388Z,98323.38
2022-11-16T21:26:49.124Z,98322.78
2022-11-16T21:31:13.431Z,98334.34
2022-11-16T21:35:29.757Z,98351.78
2022-11-16T21:39:46.183Z,98349.38
2022-11-16T21:44:02.445Z,98342.09
2022-11-16T21:48:18.708Z,98326.47
2022-11-16T21:52:34.974Z,98308.00
2022-11-16T21:56:51.348Z,98300.72
2022-11-16T22:01:07.876Z,98309.00
2022-11-16T22:05:42.812Z,98310.41
2022-11-16T22:10:02.818Z,98286.22
2022-11-16T22:14:20.291Z,98286.41
2022-11-16T22:18:36.801Z,98269.25
2022-11-16T22:22:52.979Z,98261.06
2022-11-16T22:27:09.704Z,98270.37
2022-11-16T22:31:26.363Z,98264.69
2022-11-16T22:35:42.667Z,98254.47
2022-11-16T22:39:58.862Z,98271.00
2022-11-16T22:44:15.339Z,98273.34
2022-11-16T22:48:33.672Z,98291.81
2022-11-16T22:52:49.992Z,98289.91
2022-11-16T22:57:06.494Z,98297.56
2022-11-16T23:01:22.741Z,98284.91
2022-11-16T23:05:39.008Z,98288.03
2022-11-16T23:09:55.232Z,98289.13
2022-11-16T23:14:32.439Z,98272.91
2022-11-16T23:18:48.673Z,98265.03
2022-11-16T23:23:23.516Z,98265.13
2022-11-16T23:27:53.446Z,98280.38
2022-11-16T23:32:09.742Z,98270.56
2022-11-16T23:36:25.896Z,98284.84
2022-11-16T23:40:42.215Z,98293.16
2022-11-16T23:44:58.461Z,98287.59
2022-11-16T23:49:14.708Z,98297.12
2022-11-16T23:53:30.920Z,98301.81
2022-11-16T23:57:47.105Z,98303.56
